createdAt,value
2022-08-14T00:01:54.943Z,22.18
2022-08-14T00:04:36.029Z,22.18
2022-08-14T00:07:14.067Z,22.18
2022-08-14T00:10:01.480Z,22.18
2022-08-14T00:12:37.764Z,22.17
2022-08-14T00:15:19.392Z,22.25
2022-08-14T00:17:53.150Z,22.28
2022-08-14T00:20:30.771Z,22.33
2022-08-14T00:23:12.383Z,22.41
2022-08-14T00:25:58.591Z,22.43
2022-08-14T00:28:29.185Z,22.45
2022-08-14T00:31:02.006Z,22.50
2022-08-14T00:33:52.123Z,22.54
2022-08-14T00:36:35.040Z,22.57
2022-08-14T00:39:04.804Z,22.54
2022-08-14T00:41:33.970Z,22.50
2022-08-14T00:44:01.466Z,22.42
2022-08-14T00:46:32.674Z,22.31
2022-08-14T00:49:02.144Z,22.21
2022-08-14T00:51:34.509Z,22.14
2022-08-14T00:54:11.028Z,22.06
2022-08-14T00:56:49.505Z,21.97
2022-08-14T00:59:16.302Z,21.92
2022-08-14T01:01:44.591Z,21.87
2022-08-14T01:04:52.453Z,21.82
2022-08-14T01:06:59.334Z,21.75
2022-08-14T01:09:26.723Z,21.68
2022-08-14T01:12:03.297Z,21.65
2022-08-14T01:14:31.293Z,21.61
2022-08-14T01:17:00.413Z,21.60
2022-08-14T01:19:46.805Z,21.56
2022-08-14T01:22:18.859Z,21.52
2022-08-14T01:24:47.050Z,21.49
2022-08-14T01:27:24.196Z,21.47
2022-08-14T01:30:01.416Z,21.40
2022-08-14T01:32:37.402Z,21.37
2022-08-14T01:35:19.906Z,21.34
2022-08-14T01:37:57.615Z,21.31
2022-08-14T01:40:37.037Z,21.27
2022-08-14T01:43:15.890Z,21.24
2022-08-14T01:45:57.973Z,21.25
2022-08-14T01:48:37.637Z,21.21
2022-08-14T01:51:19.191Z,21.21
2022-08-14T01:53:50.474Z,21.21
2022-08-14T01:56:37.475Z,21.19
2022-08-14T01:59:22.253Z,21.19
2022-08-14T02:01:58.016Z,21.15
2022-08-14T02:04:56.026Z,21.15
2022-08-14T02:07:34.211Z,21.09
2022-08-14T02:10:06.872Z,21.06
2022-08-14T02:12:34.017Z,21.06
2022-08-14T02:15:01.968Z,21.06
2022-08-14T02:17:34.048Z,21.07
2022-08-14T02:20:01.046Z,21.02
2022-08-14T02:22:33.136Z,21.00
2022-08-14T02:25:01.558Z,21.03
2022-08-14T02:28:25.370Z,20.92
2022-08-14T02:30:17.319Z,20.95
2022-08-14T02:32:46.037Z,20.97
2022-08-14T02:35:18.901Z,20.99
2022-08-14T02:37:50.065Z,21.04
2022-08-14T02:40:19.190Z,21.03
2022-08-14T02:42:54.546Z,20.98
2022-08-14T02:45:33.404Z,21.03
2022-08-14T02:48:10.080Z,21.05
2022-08-14T02:50:39.287Z,21.11
2022-08-14T02:53:06.457Z,21.20
2022-08-14T02:55:35.822Z,21.26
2022-08-14T02:58:05.955Z,21.34
2022-08-14T03:00:39.877Z,21.38
2022-08-14T03:03:10.348Z,21.38
2022-08-14T03:05:41.237Z,21.45
2022-08-14T03:08:16.230Z,21.47
2022-08-14T03:10:49.066Z,21.46
2022-08-14T03:13:20.777Z,21.54
2022-08-14T03:15:56.186Z,21.62
2022-08-14T03:18:31.273Z,21.69
2022-08-14T03:21:07.935Z,21.81
2022-08-14T03:23:38.516Z,21.87
2022-08-14T03:26:12.658Z,21.98
2022-08-14T03:28:52.241Z,22.06
2022-08-14T03:31:25.946Z,22.11
2022-08-14T03:33:54.390Z,22.17
2022-08-14T03:37:28.834Z,22.24
2022-08-14T03:39:22.706Z,22.25
2022-08-14T03:41:53.817Z,22.24
2022-08-14T03:45:26.285Z,22.12
2022-08-14T03:47:08.444Z,22.18
2022-08-14T03:49:40.419Z,22.25
2022-08-14T03:52:37.894Z,22.26
2022-08-14T03:54:55.751Z,22.30
2022-08-14T03:57:23.719Z,22.36
2022-08-14T03:59:51.058Z,22.39
2022-08-14T04:02:33.377Z,22.44
2022-08-14T04:05:11.563Z,22.49
2022-08-14T04:07:39.537Z,22.48
2022-08-14T04:10:17.143Z,22.51
2022-08-14T04:12:51.660Z,22.56
2022-08-14T04:15:20.194Z,22.64
2022-08-14T04:17:50.387Z,22.71
2022-08-14T04:20:25.469Z,22.80
2022-08-14T04:22:55.505Z,22.87
2022-08-14T04:25:22.697Z,22.92
2022-08-14T04:28:02.377Z,22.96
2022-08-14T04:30:32.616Z,22.97
2022-08-14T04:33:06.425Z,22.90
2022-08-14T04:35:56.489Z,23.02
2022-08-14T04:38:43.513Z,23.08
2022-08-14T04:41:32.746Z,23.11
2022-08-14T04:43:59.591Z,23.20
2022-08-14T04:46:56.851Z,23.30
2022-08-14T04:49:15.529Z,23.36
2022-08-14T04:51:55.544Z,23.39
2022-08-14T04:54:26.995Z,23.45
2022-08-14T04:56:57.614Z,23.55
2022-08-14T04:59:25.197Z,23.62
2022-08-14T05:01:56.982Z,23.71
2022-08-14T05:04:25.241Z,23.78
2022-08-14T05:06:55.229Z,23.85
2022-08-14T05:09:29.086Z,23.93
2022-08-14T05:12:00.637Z,23.96
2022-08-14T05:14:55.247Z,24.07
2022-08-14T05:17:28.770Z,24.18
2022-08-14T05:21:04.355Z,24.22
2022-08-14T05:22:59.902Z,24.29
2022-08-14T05:25:30.690Z,24.38
2022-08-14T05:28:19.289Z,24.52
2022-08-14T05:30:52.708Z,24.63
2022-08-14T05:33:21.192Z,24.77
2022-08-14T05:35:49.111Z,24.90
2022-08-14T05:38:22.471Z,25.05
2022-08-14T05:41:00.689Z,25.24
2022-08-14T05:43:40.853Z,25.33
2022-08-14T05:46:15.376Z,25.69
2022-08-14T05:48:42.992Z,26.04
2022-08-14T05:51:10.372Z,27.15
2022-08-14T05:53:37.349Z,28.90
2022-08-14T05:56:09.374Z,29.55
2022-08-14T05:58:41.460Z,31.26
2022-08-14T06:01:09.635Z,33.85
2022-08-14T06:03:37.253Z,33.80
2022-08-14T06:06:07.704Z,32.37
2022-08-14T06:08:41.500Z,31.23
2022-08-14T06:11:09.506Z,30.20
2022-08-14T06:13:45.040Z,29.46
2022-08-14T06:16:17.817Z,28.94
2022-08-14T06:18:51.982Z,28.70
2022-08-14T06:21:23.486Z,28.99
2022-08-14T06:23:50.978Z,29.41
2022-08-14T06:26:20.889Z,29.48
2022-08-14T06:28:52.031Z,30.50
2022-08-14T06:31:21.067Z,31.13
2022-08-14T06:35:10.611Z,30.43
2022-08-14T06:36:37.813Z,29.72
2022-08-14T06:39:04.679Z,29.69
2022-08-14T06:41:58.355Z,30.64
2022-08-14T06:44:30.667Z,30.82
2022-08-14T06:47:00.368Z,30.77
2022-08-14T06:49:27.485Z,30.61
2022-08-14T06:51:57.535Z,30.39
2022-08-14T06:54:31.755Z,30.13
2022-08-14T06:56:59.036Z,29.71
2022-08-14T06:59:26.313Z,29.42
2022-08-14T07:02:13.199Z,29.20
2022-08-14T07:04:59.101Z,29.05
2022-08-14T07:07:28.704Z,29.28
2022-08-14T07:09:56.121Z,29.83
2022-08-14T07:12:34.881Z,30.36
2022-08-14T07:15:11.128Z,30.37
2022-08-14T07:17:46.705Z,30.41
2022-08-14T07:20:30.571Z,30.49
2022-08-14T07:23:07.352Z,30.46
2022-08-14T07:25:37.524Z,33.71
2022-08-14T07:28:20.357Z,39.30
2022-08-14T07:30:51.490Z,42.68
2022-08-14T07:33:24.550Z,44.60
2022-08-14T07:35:59.258Z,45.82
2022-08-14T07:38:35.685Z,47.52
2022-08-14T07:41:11.865Z,49.52
2022-08-14T07:43:47.526Z,50.43
2022-08-14T07:46:29.451Z,51.52
2022-08-14T07:48:58.729Z,51.81
2022-08-14T07:51:34.057Z,51.39
2022-08-14T07:54:04.405Z,51.86
2022-08-14T07:56:47.134Z,52.03
2022-08-14T07:59:18.531Z,52.94
2022-08-14T08:01:48.439Z,54.00
2022-08-14T08:04:24.301Z,54.12
2022-08-14T08:06:53.232Z,54.86
2022-08-14T08:09:32.149Z,55.45
2022-08-14T08:12:05.125Z,55.69
2022-08-14T08:14:56.335Z,56.86
2022-08-14T08:17:24.964Z,57.77
2022-08-14T08:19:52.331Z,57.39
2022-08-14T08:22:21.378Z,56.86
2022-08-14T08:24:50.434Z,56.62
2022-08-14T08:27:21.415Z,56.77
2022-08-14T08:29:51.019Z,57.13
2022-08-14T08:32:18.727Z,57.27
2022-08-14T08:34:47.071Z,57.19
2022-08-14T08:37:15.341Z,52.96
2022-08-14T08:40:02.405Z,49.57
2022-08-14T08:42:31.580Z,52.84
2022-08-14T08:45:11.821Z,54.31
2022-08-14T08:47:40.502Z,54.79
2022-08-14T08:50:23.465Z,55.44
2022-08-14T08:53:09.581Z,56.74
2022-08-14T08:55:45.043Z,57.11
2022-08-14T08:58:24.824Z,57.11
2022-08-14T09:00:57.871Z,57.11
2022-08-14T09:03:27.925Z,58.08
2022-08-14T09:06:01.342Z,57.86
2022-08-14T09:08:36.957Z,57.55
2022-08-14T09:11:19.461Z,57.32
2022-08-14T09:13:53.156Z,57.50
2022-08-14T09:16:23.690Z,56.29
2022-08-14T09:18:53.175Z,54.71
2022-08-14T09:21:24.191Z,56.43
2022-08-14T09:24:28.183Z,57.86
2022-08-14T09:26:49.584Z,58.41
2022-08-14T09:29:22.905Z,57.80
2022-08-14T09:31:58.085Z,58.56
2022-08-14T09:35:03.919Z,59.05
2022-08-14T09:37:45.155Z,57.71
2022-08-14T09:40:21.745Z,51.28
2022-08-14T09:43:14.778Z,49.17
2022-08-14T09:45:52.870Z,45.73
2022-08-14T09:48:29.878Z,43.42
2022-08-14T09:50:58.613Z,41.40
2022-08-14T09:54:19.035Z,40.24
2022-08-14T09:56:46.944Z,39.28
2022-08-14T09:59:25.592Z,38.41
2022-08-14T10:01:57.415Z,37.99
2022-08-14T10:04:36.710Z,37.74
2022-08-14T10:07:08.576Z,37.07
2022-08-14T10:09:59.491Z,36.34
2022-08-14T10:12:53.163Z,35.86
2022-08-14T10:15:26.066Z,35.51
2022-08-14T10:18:17.607Z,35.07
2022-08-14T10:21:01.014Z,34.83
2022-08-14T10:23:40.014Z,34.55
2022-08-14T10:26:09.016Z,34.28
2022-08-14T10:29:18.984Z,34.00
2022-08-14T10:31:40.236Z,33.68
2022-08-14T10:34:29.038Z,33.27
2022-08-14T10:37:05.725Z,33.04
2022-08-14T10:40:02.012Z,32.88
2022-08-14T10:42:39.605Z,32.64
2022-08-14T10:45:22.803Z,32.52
2022-08-14T10:48:07.513Z,32.51
2022-08-14T10:50:41.445Z,32.54
2022-08-14T10:53:09.691Z,32.31
2022-08-14T10:55:45.019Z,32.20
2022-08-14T10:58:14.701Z,32.15
2022-08-14T11:00:47.305Z,31.98
2022-08-14T11:03:19.919Z,32.06
2022-08-14T11:05:55.950Z,32.11
2022-08-14T11:08:34.136Z,32.19
2022-08-14T11:11:04.163Z,32.18
2022-08-14T11:13:31.588Z,32.20
2022-08-14T11:16:01.285Z,32.17
2022-08-14T11:18:36.320Z,32.17
2022-08-14T11:21:09.351Z,31.98
2022-08-14T11:23:39.708Z,31.76
2022-08-14T11:26:10.314Z,31.60
2022-08-14T11:28:47.381Z,31.80
2022-08-14T11:31:25.747Z,31.89
2022-08-14T11:33:58.617Z,31.81
2022-08-14T11:36:57.212Z,31.77
2022-08-14T11:39:22.970Z,31.69
2022-08-14T11:42:56.921Z,31.75
2022-08-14T11:45:10.984Z,31.96
2022-08-14T11:47:43.859Z,31.88
2022-08-14T11:50:36.937Z,31.72
2022-08-14T11:53:06.859Z,31.61
2022-08-14T11:55:39.143Z,31.43
2022-08-14T11:58:11.959Z,31.02
2022-08-14T12:00:50.085Z,30.83
2022-08-14T12:03:37.642Z,30.64
2022-08-14T12:06:29.266Z,30.46
2022-08-14T12:09:08.273Z,30.37
2022-08-14T12:11:43.212Z,30.46
2022-08-14T12:14:13.357Z,30.40
2022-08-14T12:17:12.128Z,30.41
2022-08-14T12:19:54.010Z,30.39
2022-08-14T12:22:44.392Z,30.30
2022-08-14T12:25:29.892Z,30.30
2022-08-14T12:28:01.704Z,30.26
2022-08-14T12:30:43.161Z,30.22
2022-08-14T12:33:33.384Z,29.96
2022-08-14T12:36:06.188Z,29.78
2022-08-14T12:38:37.809Z,29.62
2022-08-14T12:41:10.600Z,29.60
2022-08-14T12:43:59.727Z,29.59
2022-08-14T12:46:40.742Z,29.66
2022-08-14T12:49:11.387Z,29.67
2022-08-14T12:51:38.170Z,29.75
2022-08-14T12:54:26.915Z,29.88
2022-08-14T12:57:19.523Z,29.90
2022-08-14T12:59:47.681Z,29.97
2022-08-14T13:02:38.814Z,29.92
2022-08-14T13:05:15.101Z,30.10
2022-08-14T13:07:45.656Z,30.24
2022-08-14T13:10:47.459Z,30.42
2022-08-14T13:13:15.235Z,30.46
2022-08-14T13:15:57.305Z,30.54
2022-08-14T13:18:28.111Z,30.56
2022-08-14T13:21:01.146Z,30.60
2022-08-14T13:23:36.223Z,30.66
2022-08-14T13:26:04.625Z,30.57
2022-08-14T13:28:41.344Z,30.64
2022-08-14T13:31:31.058Z,30.62
2022-08-14T13:34:01.444Z,30.41
2022-08-14T13:36:51.862Z,30.30
2022-08-14T13:39:17.023Z,30.11
2022-08-14T13:41:44.676Z,29.95
2022-08-14T13:44:15.548Z,29.74
2022-08-14T13:46:51.103Z,29.67
2022-08-14T13:49:19.451Z,29.65
2022-08-14T13:51:59.161Z,29.53
2022-08-14T13:54:31.351Z,29.43
2022-08-14T13:57:01.244Z,29.36
2022-08-14T13:59:38.112Z,29.25
2022-08-14T14:02:07.871Z,29.07
2022-08-14T14:04:39.804Z,29.01
2022-08-14T14:07:14.205Z,28.93
2022-08-14T14:09:52.791Z,28.78
2022-08-14T14:12:38.248Z,28.71
2022-08-14T14:15:13.878Z,28.67
2022-08-14T14:17:43.981Z,28.66
2022-08-14T14:20:35.258Z,28.59
2022-08-14T14:23:11.741Z,28.45
2022-08-14T14:25:50.442Z,28.44
2022-08-14T14:28:24.459Z,28.43
2022-08-14T14:30:54.545Z,28.46
2022-08-14T14:33:45.219Z,28.45
2022-08-14T14:36:15.173Z,28.41
2022-08-14T14:39:04.267Z,28.37
2022-08-14T14:41:43.802Z,28.32
2022-08-14T14:44:16.028Z,28.27
2022-08-14T14:46:49.577Z,28.21
2022-08-14T14:49:21.842Z,28.11
2022-08-14T14:51:51.145Z,28.07
2022-08-14T14:54:31.580Z,28.03
2022-08-14T14:57:04.957Z,27.98
2022-08-14T14:59:37.560Z,27.98
2022-08-14T15:02:07.805Z,27.97
2022-08-14T15:04:38.074Z,27.93
2022-08-14T15:07:06.893Z,27.89
2022-08-14T15:09:34.064Z,27.85
2022-08-14T15:12:16.302Z,27.83
2022-08-14T15:14:54.780Z,27.73
2022-08-14T15:17:25.110Z,27.72
2022-08-14T15:19:56.655Z,27.70
2022-08-14T15:22:25.094Z,27.68
2022-08-14T15:24:52.250Z,27.66
2022-08-14T15:27:26.234Z,27.66
2022-08-14T15:29:53.983Z,27.58
2022-08-14T15:32:23.264Z,27.61
2022-08-14T15:34:51.927Z,27.58
2022-08-14T15:37:23.096Z,27.56
2022-08-14T15:39:52.597Z,27.50
2022-08-14T15:42:23.136Z,27.51
2022-08-14T15:44:57.768Z,27.47
2022-08-14T15:47:30.066Z,27.45
2022-08-14T15:50:00.317Z,27.44
2022-08-14T15:52:35.237Z,27.43
2022-08-14T15:55:15.308Z,27.42
2022-08-14T15:58:02.045Z,27.42
2022-08-14T16:00:51.855Z,27.28
2022-08-14T16:03:27.916Z,27.32
2022-08-14T16:06:15.643Z,27.36
2022-08-14T16:08:50.418Z,27.33
2022-08-14T16:11:27.483Z,27.33
2022-08-14T16:13:59.868Z,27.33
2022-08-14T16:16:34.592Z,27.31
2022-08-14T16:19:19.459Z,27.31
2022-08-14T16:22:01.709Z,27.29
2022-08-14T16:25:02.069Z,27.27
2022-08-14T16:27:39.327Z,27.18
2022-08-14T16:30:25.062Z,27.17
2022-08-14T16:32:57.690Z,27.08
2022-08-14T16:35:42.222Z,26.98
2022-08-14T16:38:44.886Z,26.91
2022-08-14T16:41:27.296Z,26.83
2022-08-14T16:44:04.717Z,26.76
2022-08-14T16:46:35.290Z,26.69
2022-08-14T16:49:07.655Z,26.67
2022-08-14T16:51:38.332Z,26.63
2022-08-14T16:54:34.116Z,26.67
2022-08-14T16:57:22.860Z,26.59
2022-08-14T16:59:57.626Z,26.56
2022-08-14T17:02:42.960Z,26.55
2022-08-14T17:05:24.940Z,26.54
2022-08-14T17:08:33.279Z,26.55
2022-08-14T17:11:11.116Z,26.52
2022-08-14T17:13:58.555Z,26.50
2022-08-14T17:16:37.637Z,26.44
2022-08-14T17:19:09.744Z,26.39
2022-08-14T17:21:47.412Z,26.37
2022-08-14T17:24:56.449Z,26.28
2022-08-14T17:27:05.274Z,26.18
2022-08-14T17:29:54.370Z,26.17
2022-08-14T17:32:29.519Z,26.11
2022-08-14T17:35:12.030Z,26.11
2022-08-14T17:37:55.900Z,26.11
2022-08-14T17:40:30.110Z,26.06
2022-08-14T17:43:02.382Z,26.02
2022-08-14T17:45:41.179Z,25.97
2022-08-14T17:49:15.559Z,25.88
2022-08-14T17:51:23.872Z,25.83
2022-08-14T17:54:02.933Z,25.79
2022-08-14T17:56:33.227Z,25.80
2022-08-14T17:59:05.984Z,25.65
2022-08-14T18:01:46.443Z,25.70
2022-08-14T18:04:24.795Z,25.68
2022-08-14T18:07:16.352Z,25.68
2022-08-14T18:10:00.432Z,25.66
2022-08-14T18:12:47.880Z,25.60
2022-08-14T18:15:18.564Z,25.63
2022-08-14T18:17:53.135Z,25.65
2022-08-14T18:21:39.832Z,25.62
2022-08-14T18:23:13.749Z,25.56
2022-08-14T18:25:52.888Z,25.57
2022-08-14T18:28:48.226Z,25.58
2022-08-14T18:31:20.966Z,25.56
2022-08-14T18:33:56.793Z,25.54
2022-08-14T18:36:47.129Z,25.56
2022-08-14T18:39:24.650Z,25.71
2022-08-14T18:41:54.117Z,25.78
2022-08-14T18:44:54.831Z,25.83
2022-08-14T18:47:26.060Z,25.88
2022-08-14T18:49:57.963Z,25.92
2022-08-14T18:52:39.965Z,25.94
2022-08-14T18:55:18.619Z,25.92
2022-08-14T18:58:27.448Z,25.91
2022-08-14T19:00:58.752Z,25.85
2022-08-14T19:03:36.781Z,25.83
2022-08-14T19:06:05.101Z,25.79
2022-08-14T19:08:42.833Z,25.80
2022-08-14T19:11:50.416Z,25.79
2022-08-14T19:14:46.298Z,25.73
2022-08-14T19:18:13.782Z,25.71
2022-08-14T19:21:00.098Z,25.66
2022-08-14T19:23:42.240Z,25.66
2022-08-14T19:26:54.411Z,25.61
2022-08-14T19:29:38.135Z,25.62
2022-08-14T19:32:39.159Z,25.58
2022-08-14T19:35:55.215Z,25.56
2022-08-14T19:39:11.997Z,25.54
2022-08-14T19:41:40.830Z,25.49
2022-08-14T19:44:19.601Z,25.37
2022-08-14T19:47:00.489Z,25.44
2022-08-14T19:50:09.125Z,25.46
2022-08-14T19:52:29.618Z,25.44
2022-08-14T19:54:57.825Z,25.43
2022-08-14T19:57:36.079Z,25.43
2022-08-14T20:00:28.451Z,25.42
2022-08-14T20:03:11.301Z,25.41
2022-08-14T20:05:45.607Z,25.39
2022-08-14T20:11:01.313Z,25.40
2022-08-14T20:11:14.309Z,25.36
2022-08-14T20:14:20.496Z,25.34
2022-08-14T20:16:54.286Z,25.28
2022-08-14T20:19:29.188Z,25.27
2022-08-14T20:22:34.997Z,25.26
2022-08-14T20:24:50.009Z,25.21
2022-08-14T20:27:39.619Z,25.19
2022-08-14T20:33:07.890Z,25.14
2022-08-14T20:35:43.722Z,25.13
2022-08-14T20:38:29.641Z,25.10
2022-08-14T20:41:09.670Z,25.09
2022-08-14T20:43:59.756Z,25.03
2022-08-14T20:46:31.320Z,25.00
2022-08-14T20:49:08.649Z,25.00
2022-08-14T20:51:54.521Z,24.99
2022-08-14T20:54:36.429Z,24.98
2022-08-14T20:57:17.657Z,24.92
2022-08-14T20:59:57.250Z,24.92
2022-08-14T21:02:30.507Z,24.80
2022-08-14T21:05:16.239Z,24.86
2022-08-14T21:07:44.653Z,24.82
2022-08-14T21:10:33.984Z,24.84
2022-08-14T21:13:27.882Z,24.79
2022-08-14T21:15:57.291Z,24.79
2022-08-14T21:18:31.795Z,24.80
2022-08-14T21:21:01.425Z,24.77
2022-08-14T21:23:55.207Z,24.77
2022-08-14T21:26:51.254Z,24.73
2022-08-14T21:29:13.586Z,24.60
2022-08-14T21:31:55.755Z,24.63
2022-08-14T21:34:27.400Z,24.64
2022-08-14T21:37:07.878Z,24.58
2022-08-14T21:39:37.372Z,24.56
2022-08-14T21:42:06.300Z,24.54
2022-08-14T21:44:35.833Z,24.49
2022-08-14T21:47:16.557Z,24.46
2022-08-14T21:49:47.896Z,24.45
2022-08-14T21:52:50.716Z,24.44
2022-08-14T21:55:10.376Z,24.37
2022-08-14T21:57:56.484Z,24.37
2022-08-14T22:00:42.489Z,24.31
2022-08-14T22:03:17.330Z,24.30
2022-08-14T22:05:49.931Z,24.27
2022-08-14T22:08:18.328Z,24.23
2022-08-14T22:10:51.517Z,24.20
2022-08-14T22:13:24.654Z,24.18
2022-08-14T22:15:58.185Z,24.12
2022-08-14T22:18:27.217Z,24.11
2022-08-14T22:20:57.504Z,24.10
2022-08-14T22:23:25.865Z,24.11
2022-08-14T22:25:55.301Z,24.10
2022-08-14T22:28:33.211Z,24.07
2022-08-14T22:31:10.285Z,24.05
2022-08-14T22:33:39.139Z,24.02
2022-08-14T22:36:26.309Z,24.04
2022-08-14T22:38:54.746Z,24.01
2022-08-14T22:41:27.563Z,24.01
2022-08-14T22:44:02.198Z,24.01
2022-08-14T22:46:29.112Z,23.98
2022-08-14T22:48:57.575Z,23.96
2022-08-14T22:51:27.706Z,23.93
2022-08-14T22:53:55.872Z,23.92
2022-08-14T22:56:29.523Z,23.94
2022-08-14T22:59:02.066Z,23.94
2022-08-14T23:01:56.139Z,23.93
2022-08-14T23:04:34.929Z,23.88
2022-08-14T23:07:14.492Z,23.88
2022-08-14T23:09:57.500Z,23.88
2022-08-14T23:12:34.776Z,23.90
2022-08-14T23:15:02.260Z,23.89
2022-08-14T23:17:39.616Z,23.87
2022-08-14T23:20:19.120Z,23.89
2022-08-14T23:22:48.830Z,23.83
2022-08-14T23:25:32.420Z,23.88
2022-08-14T23:28:07.190Z,23.84
2022-08-14T23:30:55.365Z,23.82
2022-08-14T23:33:22.378Z,23.76
2022-08-14T23:35:59.050Z,23.72
2022-08-14T23:38:31.059Z,23.73
2022-08-14T23:41:00.927Z,23.72
2022-08-14T23:43:30.911Z,23.72
2022-08-14T23:46:00.763Z,23.70
2022-08-14T23:48:29.808Z,23.58
2022-08-14T23:50:58.917Z,23.63
2022-08-14T23:53:47.806Z,23.65
2022-08-14T23:56:31.806Z,23.65
2022-08-14T23:59:01.359Z,23.62
